createdAt,value
2018-08-12T00:00:01.664Z,83.70
2018-08-12T00:02:30.770Z,83.10
2018-08-12T00:04:58.713Z,83.70
2018-08-12T00:07:29.254Z,83.90
2018-08-12T00:09:57.639Z,84.40
2018-08-12T00:12:25.800Z,84.50
2018-08-12T00:14:54.445Z,84.80
2018-08-12T00:17:23.413Z,84.50
2018-08-12T00:19:51.386Z,84.70
2018-08-12T00:22:19.431Z,85.30
2018-08-12T00:24:47.452Z,84.50
2018-08-12T00:27:15.959Z,85.20
2018-08-12T00:29:43.932Z,84.70
2018-08-12T00:32:11.886Z,85.40
2018-08-12T00:34:40.688Z,84.80
2018-08-12T00:37:08.989Z,84.20
2018-08-12T00:39:36.926Z,84.40
2018-08-12T00:42:06.248Z,84.90
2018-08-12T00:44:34.238Z,84.10
2018-08-12T00:47:02.206Z,83.90
2018-08-12T00:49:30.186Z,83.30
2018-08-12T00:51:58.837Z,83.50
2018-08-12T00:54:26.839Z,83.80
2018-08-12T00:56:54.739Z,84.60
2018-08-12T00:59:24.123Z,84.10
2018-08-12T01:01:52.046Z,84.00
2018-08-12T01:04:20.019Z,84.10
2018-08-12T01:06:47.934Z,84.70
2018-08-12T01:09:15.893Z,85.30
2018-08-12T01:11:44.274Z,85.30
2018-08-12T01:14:12.191Z,85.10
2018-08-12T01:16:40.160Z,85.20
2018-08-12T01:19:08.649Z,85.50
2018-08-12T01:21:36.598Z,85.30
2018-08-12T01:24:05.224Z,85.50
2018-08-12T01:26:33.158Z,85.50
2018-08-12T01:29:01.159Z,85.60
2018-08-12T01:31:29.147Z,85.90
2018-08-12T01:33:57.806Z,86.10
2018-08-12T01:36:25.725Z,86.00
2018-08-12T01:38:53.670Z,85.90
2018-08-12T01:41:21.627Z,85.50
2018-08-12T01:43:49.600Z,85.30
2018-08-12T01:46:17.524Z,85.40
2018-08-12T01:48:46.163Z,86.00
2018-08-12T01:51:14.032Z,86.30
2018-08-12T01:53:41.968Z,86.30
2018-08-12T01:56:09.939Z,86.10
2018-08-12T01:58:37.885Z,85.90
2018-08-12T02:01:06.524Z,86.30
2018-08-12T02:03:34.811Z,86.30
2018-08-12T02:06:02.716Z,86.20
2018-08-12T02:08:30.701Z,86.40
2018-08-12T02:10:59.228Z,86.60
2018-08-12T02:13:27.209Z,86.40
2018-08-12T02:15:56.896Z,86.00
2018-08-12T02:18:24.793Z,85.80
2018-08-12T02:20:52.725Z,86.10
2018-08-12T02:23:21.313Z,86.50
2018-08-12T02:25:49.230Z,86.30
2018-08-12T02:28:17.111Z,86.50
2018-08-12T02:30:45.021Z,86.80
2018-08-12T02:33:12.952Z,86.70
2018-08-12T02:35:40.901Z,85.90
2018-08-12T02:38:10.214Z,86.20
2018-08-12T02:40:38.738Z,87.50
2018-08-12T02:43:06.914Z,87.20
2018-08-12T02:45:35.587Z,87.50
2018-08-12T02:48:03.623Z,87.30
2018-08-12T02:50:31.558Z,87.50
2018-08-12T02:52:59.503Z,87.50
2018-08-12T02:55:27.457Z,87.60
2018-08-12T02:57:55.436Z,87.70
2018-08-12T03:00:23.381Z,87.30
2018-08-12T03:02:51.355Z,87.20
2018-08-12T03:05:19.273Z,87.00
2018-08-12T03:07:47.191Z,86.60
2018-08-12T03:10:15.232Z,86.80
2018-08-12T03:12:43.886Z,86.80
2018-08-12T03:15:11.880Z,86.90
2018-08-12T03:17:39.850Z,87.00
2018-08-12T03:20:10.675Z,86.90
2018-08-12T03:22:38.612Z,86.60
2018-08-12T03:25:08.109Z,86.80
2018-08-12T03:27:36.178Z,86.10
2018-08-12T03:30:05.875Z,86.70
2018-08-12T03:32:35.198Z,86.70
2018-08-12T03:35:03.420Z,86.60
2018-08-12T03:37:32.253Z,86.70
2018-08-12T03:40:00.897Z,87.40
2018-08-12T03:42:28.895Z,87.10
2018-08-12T03:44:56.837Z,87.50
2018-08-12T03:47:24.755Z,87.50
2018-08-12T03:49:52.705Z,87.90
2018-08-12T03:52:20.657Z,87.50
2018-08-12T03:54:48.732Z,87.90
2018-08-12T03:57:17.201Z,88.00
2018-08-12T03:59:46.021Z,88.50
2018-08-12T04:02:13.939Z,87.90
2018-08-12T04:04:41.916Z,87.70
2018-08-12T04:07:09.804Z,88.50
2018-08-12T04:09:37.753Z,88.30
2018-08-12T04:12:05.712Z,88.30
2018-08-12T04:14:34.264Z,87.80
2018-08-12T04:17:02.747Z,88.10
2018-08-12T04:19:31.392Z,88.10
2018-08-12T04:21:59.788Z,88.00
2018-08-12T04:24:28.666Z,87.40
2018-08-12T04:26:57.562Z,87.80
2018-08-12T04:29:25.451Z,87.70
2018-08-12T04:31:53.431Z,88.30
2018-08-12T04:34:21.332Z,88.50
2018-08-12T04:36:49.327Z,88.70
2018-08-12T04:39:17.981Z,88.60
2018-08-12T04:41:45.892Z,88.80
2018-08-12T04:44:13.885Z,88.80
2018-08-12T04:46:41.847Z,89.30
2018-08-12T04:49:10.301Z,89.40
2018-08-12T04:51:38.714Z,90.00
2018-08-12T04:54:07.292Z,90.10
2018-08-12T04:56:35.443Z,90.10
2018-08-12T04:59:03.537Z,90.10
2018-08-12T05:01:31.507Z,90.10
2018-08-12T05:04:00.102Z,90.20
2018-08-12T05:06:28.652Z,90.20
2018-08-12T05:08:56.650Z,90.20
2018-08-12T05:11:24.787Z,90.30
2018-08-12T05:13:52.689Z,90.30
2018-08-12T05:16:20.826Z,90.20
2018-08-12T05:18:49.021Z,90.10
2018-08-12T05:21:17.528Z,90.20
2018-08-12T05:23:45.377Z,90.00
2018-08-12T05:26:13.321Z,90.00
2018-08-12T05:28:41.357Z,90.00
2018-08-12T05:31:09.588Z,90.10
2018-08-12T05:33:38.908Z,90.00
2018-08-12T05:36:07.231Z,89.90
2018-08-12T05:38:35.841Z,89.10
2018-08-12T05:41:03.981Z,88.50
2018-08-12T05:43:31.951Z,89.00
2018-08-12T05:45:59.874Z,89.10
2018-08-12T05:48:27.849Z,88.20
2018-08-12T05:50:56.358Z,87.90
2018-08-12T05:53:24.995Z,87.20
2018-08-12T05:55:53.100Z,86.60
2018-08-12T05:58:21.454Z,86.70
2018-08-12T06:00:50.119Z,85.80
2018-08-12T06:03:18.129Z,84.20
2018-08-12T06:05:46.080Z,83.90
2018-08-12T06:08:14.649Z,83.30
2018-08-12T06:10:42.548Z,82.00
2018-08-12T06:13:10.637Z,80.80
2018-08-12T06:15:39.097Z,79.80
2018-08-12T06:18:07.099Z,78.50
2018-08-12T06:20:35.027Z,77.90
2018-08-12T06:23:04.221Z,77.80
2018-08-12T06:25:32.192Z,77.40
2018-08-12T06:28:00.177Z,76.50
2018-08-12T06:30:28.091Z,75.80
2018-08-12T06:32:56.020Z,75.00
2018-08-12T06:35:24.592Z,75.40
2018-08-12T06:37:54.132Z,75.20
2018-08-12T06:40:22.100Z,74.00
2018-08-12T06:42:50.092Z,72.70
2018-08-12T06:45:18.484Z,73.20
2018-08-12T06:47:47.576Z,72.10
2018-08-12T06:50:15.543Z,73.00
2018-08-12T06:52:43.680Z,73.20
2018-08-12T06:55:12.566Z,73.90
2018-08-12T06:57:41.600Z,72.10
2018-08-12T07:00:14.565Z,72.20
2018-08-12T07:02:43.469Z,71.90
2018-08-12T07:05:11.988Z,71.80
2018-08-12T07:07:40.013Z,71.50
2018-08-12T07:10:12.976Z,68.60
2018-08-12T07:12:41.970Z,68.50
2018-08-12T07:15:12.578Z,67.30
2018-08-12T07:17:42.465Z,67.00
2018-08-12T07:20:11.884Z,65.00
2018-08-12T07:22:40.035Z,65.20
2018-08-12T07:25:09.959Z,65.90
2018-08-12T07:27:39.967Z,63.70
2018-08-12T07:30:09.814Z,65.50
2018-08-12T07:32:37.847Z,65.10
2018-08-12T07:35:06.659Z,66.40
2018-08-12T07:37:34.587Z,66.10
2018-08-12T07:40:02.580Z,65.50
2018-08-12T07:42:31.228Z,66.60
2018-08-12T07:44:59.141Z,67.60
2018-08-12T07:47:27.158Z,66.80
2018-08-12T07:49:55.118Z,67.00
2018-08-12T07:52:24.295Z,65.50
2018-08-12T07:54:53.013Z,65.70
2018-08-12T07:57:20.940Z,65.70
2018-08-12T07:59:48.931Z,64.80
2018-08-12T08:02:16.898Z,64.70
2018-08-12T08:04:44.833Z,64.40
2018-08-12T08:07:12.891Z,64.60
2018-08-12T08:09:40.845Z,63.50
2018-08-12T08:12:09.434Z,61.60
2018-08-12T08:14:37.665Z,61.20
2018-08-12T08:17:06.411Z,58.90
2018-08-12T08:19:34.321Z,56.60
2018-08-12T08:22:02.244Z,54.90
2018-08-12T08:24:30.214Z,56.30
2018-08-12T08:26:58.877Z,57.20
2018-08-12T08:29:28.698Z,56.70
2018-08-12T08:31:56.721Z,56.10
2018-08-12T08:34:24.636Z,57.60
2018-08-12T08:36:53.170Z,55.80
2018-08-12T08:39:21.055Z,56.10
2018-08-12T08:41:49.071Z,55.10
2018-08-12T08:44:17.040Z,54.80
2018-08-12T08:46:44.986Z,54.10
2018-08-12T08:49:13.004Z,54.00
2018-08-12T08:51:40.963Z,50.90
2018-08-12T08:54:08.937Z,50.00
2018-08-12T08:56:36.934Z,48.40
2018-08-12T08:59:04.913Z,50.50
2018-08-12T09:01:32.833Z,50.70
2018-08-12T09:04:01.800Z,50.30
2018-08-12T09:06:29.721Z,49.80
2018-08-12T09:08:58.382Z,49.60
2018-08-12T09:11:26.420Z,51.40
2018-08-12T09:13:55.313Z,48.10
2018-08-12T09:16:23.944Z,48.20
2018-08-12T09:18:52.599Z,48.80
2018-08-12T09:21:20.730Z,49.30
2018-08-12T09:23:48.695Z,48.30
2018-08-12T09:26:16.586Z,47.80
2018-08-12T09:28:44.553Z,47.90
2018-08-12T09:31:12.480Z,48.10
2018-08-12T09:33:40.376Z,49.00
2018-08-12T09:36:09.100Z,46.00
2018-08-12T09:38:37.021Z,46.10
2018-08-12T09:41:05.399Z,46.90
2018-08-12T09:43:33.306Z,45.40
2018-08-12T09:46:01.824Z,45.70
2018-08-12T09:48:29.815Z,45.10
2018-08-12T09:50:58.299Z,46.70
2018-08-12T09:53:26.245Z,45.50
2018-08-12T09:55:54.171Z,46.30
2018-08-12T09:58:22.154Z,46.40
2018-08-12T10:00:50.829Z,47.30
2018-08-12T10:03:19.047Z,47.20
2018-08-12T10:05:46.959Z,46.50
2018-08-12T10:08:15.869Z,46.70
2018-08-12T10:10:44.542Z,44.00
2018-08-12T10:13:12.522Z,44.00
2018-08-12T10:15:40.565Z,46.40
2018-08-12T10:18:08.569Z,46.30
2018-08-12T10:20:37.460Z,46.70
2018-08-12T10:23:05.624Z,44.10
2018-08-12T10:25:33.598Z,44.00
2018-08-12T10:28:01.576Z,44.00
2018-08-12T10:30:29.601Z,43.50
2018-08-12T10:32:58.197Z,44.40
2018-08-12T10:35:26.153Z,45.40
2018-08-12T10:37:54.106Z,44.10
2018-08-12T10:40:22.816Z,44.90
2018-08-12T10:42:50.836Z,45.00
2018-08-12T10:45:18.798Z,44.00
2018-08-12T10:47:47.833Z,43.50
2018-08-12T10:50:18.384Z,44.10
2018-08-12T10:52:47.555Z,44.90
2018-08-12T10:55:17.980Z,43.70
2018-08-12T10:57:46.379Z,44.10
2018-08-12T11:00:21.907Z,44.40
2018-08-12T11:02:50.627Z,45.00
2018-08-12T11:05:19.087Z,45.20
2018-08-12T11:07:57.368Z,44.20
2018-08-12T11:10:26.581Z,44.80
2018-08-12T11:12:55.174Z,43.20
2018-08-12T11:15:23.374Z,42.40
2018-08-12T11:17:52.528Z,44.10
2018-08-12T11:20:20.628Z,43.90
2018-08-12T11:22:48.655Z,45.30
2018-08-12T11:25:37.077Z,45.60
2018-08-12T11:28:05.913Z,42.90
2018-08-12T11:30:33.844Z,43.10
2018-08-12T11:33:02.492Z,43.70
2018-08-12T11:35:30.479Z,44.00
2018-08-12T11:37:58.532Z,43.50
2018-08-12T11:40:27.026Z,42.90
2018-08-12T11:42:55.586Z,43.40
2018-08-12T11:45:23.582Z,42.90
2018-08-12T11:47:51.522Z,42.80
2018-08-12T11:50:19.524Z,43.90
2018-08-12T11:52:48.001Z,45.50
2018-08-12T11:55:17.354Z,42.60
2018-08-12T11:57:45.423Z,43.00
2018-08-12T12:00:15.692Z,42.10
2018-08-12T12:02:46.055Z,42.50
2018-08-12T12:05:14.695Z,42.50
2018-08-12T12:07:43.390Z,42.30
2018-08-12T12:10:15.685Z,42.20
2018-08-12T12:12:44.767Z,41.80
2018-08-12T12:15:13.935Z,42.00
2018-08-12T12:17:42.838Z,42.60
2018-08-12T12:20:12.448Z,42.30
2018-08-12T12:25:17.268Z,43.50
2018-08-12T12:27:45.823Z,42.20
2018-08-12T12:30:17.129Z,42.80
2018-08-12T12:32:46.121Z,43.10
2018-08-12T12:35:15.201Z,42.70
2018-08-12T12:37:43.539Z,42.60
2018-08-12T12:40:13.483Z,42.90
2018-08-12T12:42:41.799Z,43.20
2018-08-12T12:45:11.193Z,42.10
2018-08-12T12:47:39.859Z,43.20
2018-08-12T12:50:14.239Z,42.50
2018-08-12T12:52:42.194Z,42.80
2018-08-12T12:55:10.178Z,42.70
2018-08-12T12:57:38.399Z,43.70
2018-08-12T13:00:08.924Z,42.80
2018-08-12T13:02:37.425Z,43.20
2018-08-12T13:05:07.478Z,44.60
2018-08-12T13:07:35.445Z,43.50
2018-08-12T13:10:04.390Z,43.40
2018-08-12T13:12:32.629Z,43.70
2018-08-12T13:15:01.232Z,42.80
2018-08-12T13:17:29.234Z,43.30
2018-08-12T13:19:57.159Z,42.90
2018-08-12T13:22:25.102Z,42.40
2018-08-12T13:24:54.204Z,43.00
2018-08-12T13:27:22.791Z,43.50
2018-08-12T13:29:50.700Z,44.90
2018-08-12T13:32:18.652Z,42.80
2018-08-12T13:34:46.588Z,43.40
2018-08-12T13:37:14.627Z,44.10
2018-08-12T13:39:42.607Z,43.00
2018-08-12T13:42:10.604Z,42.50
2018-08-12T13:44:38.588Z,42.90
2018-08-12T13:47:06.574Z,42.90
2018-08-12T13:49:34.488Z,42.30
2018-08-12T13:52:02.479Z,42.50
2018-08-12T13:54:30.613Z,43.20
2018-08-12T13:56:58.613Z,43.20
2018-08-12T13:59:26.820Z,44.20
2018-08-12T14:01:56.364Z,44.70
2018-08-12T14:04:24.287Z,44.70
2018-08-12T14:06:55.698Z,42.40
2018-08-12T14:09:23.625Z,43.50
2018-08-12T14:11:51.676Z,43.20
2018-08-12T14:14:20.327Z,42.80
2018-08-12T14:16:48.328Z,42.70
2018-08-12T14:19:16.422Z,43.00
2018-08-12T14:21:44.370Z,44.50
2018-08-12T14:24:12.676Z,45.20
2018-08-12T14:26:40.683Z,43.40
2018-08-12T14:29:08.643Z,43.40
2018-08-12T14:31:36.920Z,43.50
2018-08-12T14:34:06.223Z,44.10
2018-08-12T14:36:34.360Z,43.70
2018-08-12T14:39:02.494Z,44.80
2018-08-12T14:41:31.310Z,43.60
2018-08-12T14:43:59.223Z,43.90
2018-08-12T14:46:29.019Z,43.80
2018-08-12T14:48:57.274Z,43.30
2018-08-12T14:51:26.260Z,44.00
2018-08-12T14:53:55.465Z,45.60
2018-08-12T14:56:23.358Z,45.40
2018-08-12T14:58:51.556Z,44.50
2018-08-12T15:01:20.069Z,44.20
2018-08-12T15:03:47.963Z,44.10
2018-08-12T15:06:15.844Z,44.60
2018-08-12T15:08:43.735Z,45.40
2018-08-12T15:11:11.673Z,45.30
2018-08-12T15:13:39.533Z,45.90
2018-08-12T15:16:08.011Z,45.50
2018-08-12T15:18:36.754Z,45.50
2018-08-12T15:21:04.673Z,45.60
2018-08-12T15:23:32.727Z,45.00
2018-08-12T15:26:00.750Z,46.00
2018-08-12T15:28:28.651Z,45.90
2018-08-12T15:30:56.996Z,46.30
2018-08-12T15:33:25.480Z,46.60
2018-08-12T15:35:53.433Z,46.10
2018-08-12T15:38:21.309Z,46.90
2018-08-12T15:40:50.207Z,46.20
2018-08-12T15:43:18.153Z,45.70
2018-08-12T15:45:46.086Z,45.60
2018-08-12T15:48:13.994Z,46.10
2018-08-12T15:50:42.409Z,45.80
2018-08-12T15:53:10.912Z,47.60
2018-08-12T15:55:38.856Z,47.90
2018-08-12T15:58:06.882Z,48.30
2018-08-12T16:00:35.077Z,46.80
2018-08-12T16:03:03.406Z,45.90
2018-08-12T16:05:31.822Z,46.20
2018-08-12T16:08:00.453Z,45.70
2018-08-12T16:10:28.449Z,46.10
2018-08-12T16:12:58.027Z,46.30
2018-08-12T16:15:26.059Z,46.20
2018-08-12T16:17:54.054Z,46.90
2018-08-12T16:20:22.049Z,47.20
2018-08-12T16:22:50.682Z,46.90
2018-08-12T16:25:21.027Z,46.50
2018-08-12T16:27:49.057Z,46.40
2018-08-12T16:30:18.245Z,47.50
2018-08-12T16:32:46.322Z,46.40
2018-08-12T16:35:15.586Z,46.50
2018-08-12T16:37:44.348Z,46.80
2018-08-12T16:40:15.430Z,46.50
2018-08-12T16:42:43.452Z,46.50
2018-08-12T16:45:13.502Z,46.40
2018-08-12T16:47:41.675Z,46.80
2018-08-12T16:50:10.795Z,46.60
2018-08-12T16:52:39.339Z,47.00
2018-08-12T16:55:10.394Z,47.50
2018-08-12T16:57:39.060Z,48.20
2018-08-12T17:00:10.884Z,47.30
2018-08-12T17:02:38.864Z,47.40
2018-08-12T17:05:09.185Z,47.90
2018-08-12T17:07:38.127Z,48.00
2018-08-12T17:10:07.325Z,47.30
2018-08-12T17:12:35.350Z,47.80
2018-08-12T17:15:04.267Z,48.00
2018-08-12T17:17:33.076Z,47.90
2018-08-12T17:20:02.372Z,48.30
2018-08-12T17:22:30.273Z,47.90
2018-08-12T17:24:58.239Z,47.70
2018-08-12T17:27:28.069Z,48.10
2018-08-12T17:29:55.975Z,47.90
2018-08-12T17:32:23.970Z,48.80
2018-08-12T17:34:52.439Z,48.90
2018-08-12T17:37:20.367Z,49.10
2018-08-12T17:39:48.739Z,48.90
2018-08-12T17:42:16.965Z,48.90
2018-08-12T17:44:45.033Z,49.20
2018-08-12T17:47:13.557Z,49.20
2018-08-12T17:49:41.456Z,49.40
2018-08-12T17:52:09.332Z,49.80
2018-08-12T17:54:37.283Z,49.80
2018-08-12T17:57:05.239Z,49.40
2018-08-12T17:59:33.228Z,49.50
2018-08-12T18:02:01.638Z,50.00
2018-08-12T18:04:29.568Z,50.10
2018-08-12T18:06:57.628Z,50.30
2018-08-12T18:09:25.579Z,50.40
2018-08-12T18:11:53.542Z,50.70
2018-08-12T18:14:22.813Z,50.90
2018-08-12T18:16:50.737Z,51.40
2018-08-12T18:19:19.064Z,51.40
2018-08-12T18:21:48.261Z,52.00
2018-08-12T18:24:17.409Z,52.20
2018-08-12T18:26:45.339Z,52.30
2018-08-12T18:29:13.354Z,53.30
2018-08-12T18:31:41.733Z,53.10
2018-08-12T18:34:09.708Z,53.40
2018-08-12T18:36:37.668Z,53.50
2018-08-12T18:39:09.108Z,53.80
2018-08-12T18:41:37.046Z,53.70
2018-08-12T18:44:05.480Z,53.70
2018-08-12T18:46:33.418Z,53.80
2018-08-12T18:49:01.400Z,54.10
2018-08-12T18:51:30.062Z,54.00
2018-08-12T18:53:58.035Z,54.20
2018-08-12T18:56:26.056Z,54.10
2018-08-12T18:58:54.128Z,54.50
2018-08-12T19:01:22.125Z,54.60
2018-08-12T19:03:49.976Z,54.60
2018-08-12T19:06:18.033Z,55.80
2018-08-12T19:08:45.976Z,56.90
2018-08-12T19:11:13.918Z,57.90
2018-08-12T19:13:41.828Z,58.70
2018-08-12T19:16:11.039Z,58.20
2018-08-12T19:18:39.387Z,58.30
2018-08-12T19:21:08.315Z,58.40
2018-08-12T19:23:36.897Z,58.80
2018-08-12T19:26:05.633Z,59.30
2018-08-12T19:28:33.632Z,59.10
2018-08-12T19:31:02.547Z,59.60
2018-08-12T19:33:31.445Z,60.80
2018-08-12T19:36:01.334Z,60.30
2018-08-12T19:38:29.935Z,60.60
2018-08-12T19:40:57.902Z,60.60
2018-08-12T19:43:25.852Z,61.40
2018-08-12T19:45:53.834Z,62.00
2018-08-12T19:48:23.072Z,61.50
2018-08-12T19:50:51.010Z,61.70
2018-08-12T19:53:19.238Z,61.70
2018-08-12T19:55:47.670Z,62.00
2018-08-12T19:58:16.235Z,61.60
2018-08-12T20:00:44.190Z,62.10
2018-08-12T20:03:12.144Z,61.40
2018-08-12T20:05:40.170Z,62.00
2018-08-12T20:08:08.021Z,62.10
2018-08-12T20:10:36.098Z,61.50
2018-08-12T20:13:04.128Z,61.40
2018-08-12T20:15:32.078Z,61.60
2018-08-12T20:18:00.577Z,62.50
2018-08-12T20:20:28.539Z,62.60
2018-08-12T20:22:57.563Z,61.70
2018-08-12T20:25:25.531Z,63.10
2018-08-12T20:27:53.859Z,63.50
2018-08-12T20:30:21.786Z,64.30
2018-08-12T20:32:51.333Z,65.00
2018-08-12T20:35:20.368Z,65.20
2018-08-12T20:37:49.522Z,65.10
2018-08-12T20:40:17.983Z,65.50
2018-08-12T20:42:45.935Z,65.50
2018-08-12T20:45:14.258Z,65.30
2018-08-12T20:47:42.215Z,64.90
2018-08-12T20:50:10.116Z,65.00
2018-08-12T20:52:38.625Z,67.00
2018-08-12T20:55:07.749Z,67.20
2018-08-12T20:57:35.691Z,67.20
2018-08-12T21:00:05.426Z,67.60
2018-08-12T21:02:33.372Z,67.80
2018-08-12T21:05:01.373Z,68.30
2018-08-12T21:07:29.338Z,70.30
2018-08-12T21:09:58.071Z,71.20
2018-08-12T21:12:26.586Z,71.00
2018-08-12T21:14:55.529Z,71.60
2018-08-12T21:17:23.613Z,71.70
2018-08-12T21:19:51.570Z,71.30
2018-08-12T21:22:20.586Z,71.30
2018-08-12T21:24:48.527Z,71.90
2018-08-12T21:27:16.511Z,71.50
2018-08-12T21:29:44.430Z,71.20
2018-08-12T21:32:12.384Z,70.90
2018-08-12T21:34:40.811Z,71.10
2018-08-12T21:37:09.348Z,71.30
2018-08-12T21:39:37.310Z,71.50
2018-08-12T21:42:05.296Z,71.30
2018-08-12T21:44:34.323Z,71.60
2018-08-12T21:47:02.884Z,71.40
2018-08-12T21:49:31.373Z,71.50
2018-08-12T21:51:59.327Z,72.10
2018-08-12T21:54:27.260Z,72.00
2018-08-12T21:56:55.167Z,72.70
2018-08-12T21:59:23.027Z,73.20
2018-08-12T22:01:51.195Z,74.10
2018-08-12T22:04:19.160Z,74.40
2018-08-12T22:06:48.093Z,74.00
2018-08-12T22:09:16.028Z,74.40
2018-08-12T22:11:44.335Z,75.60
2018-08-12T22:14:12.314Z,76.50
2018-08-12T22:16:40.283Z,76.20
2018-08-12T22:19:08.558Z,76.10
2018-08-12T22:21:37.031Z,77.00
2018-08-12T22:24:05.007Z,77.10
2018-08-12T22:26:32.966Z,77.30
2018-08-12T22:29:01.547Z,77.70
2018-08-12T22:31:29.490Z,78.00
2018-08-12T22:33:57.485Z,78.40
2018-08-12T22:36:25.753Z,78.80
2018-08-12T22:38:53.725Z,78.50
2018-08-12T22:41:22.325Z,79.00
2018-08-12T22:43:50.312Z,78.80
2018-08-12T22:46:18.674Z,79.50
2018-08-12T22:48:46.672Z,80.10
2018-08-12T22:51:16.025Z,80.10
2018-08-12T22:53:44.017Z,79.90
2018-08-12T22:56:11.947Z,79.90
2018-08-12T22:58:40.514Z,80.70
2018-08-12T23:01:09.239Z,80.10
2018-08-12T23:03:37.305Z,80.50
2018-08-12T23:06:05.470Z,80.60
2018-08-12T23:08:33.355Z,80.80
2018-08-12T23:11:01.336Z,81.80
2018-08-12T23:13:29.347Z,81.10
2018-08-12T23:16:12.095Z,81.60
2018-08-12T23:18:40.681Z,81.40
2018-08-12T23:21:11.018Z,81.80
2018-08-12T23:23:39.923Z,82.60
2018-08-12T23:26:09.173Z,82.70
2018-08-12T23:28:37.155Z,83.30
2018-08-12T23:31:05.472Z,83.50
2018-08-12T23:33:33.471Z,83.10
2018-08-12T23:36:02.291Z,83.60
2018-08-12T23:38:30.907Z,84.50
2018-08-12T23:40:59.345Z,85.00
2018-08-12T23:43:28.370Z,85.30
2018-08-12T23:45:57.173Z,85.00
2018-08-12T23:48:25.426Z,84.80
2018-08-12T23:50:53.427Z,84.60
2018-08-12T23:53:21.400Z,85.70
2018-08-12T23:55:50.274Z,85.90
2018-08-12T23:58:18.215Z,86.80
